Egmondgracht — PDWG — position and weather

sailwx.info

Track history (hours):
 
Tides and Currents Weather Stations Pressure Air Temp Water Temp Dewpoint Dewpoint Depression Visibility Wind Speed Wind Dir Waves Ship Positions

Egmondgracht

Last reported at 2016-Aug-09 11:21 UTC. Time now 2016-Aug-25 16:45 UTC.
Position N 19°36' W 019°14'.
Warning: this ship's position is 16 days out of date.

Length 136 m; beam 19 m; draft 9 m.

Type: Cargo ship. MMSI: 245716000.

Date/timePositionNaut miles runAvg speedWind from/ knotsBaromVisibWave heightAir tempDewpointWater temp
2016-Aug-09 11:21N 19°36' W 019°14'48712.9
2016-Aug-07 21:33N 26°39' W 014°53'1312.8
2016-Aug-07 20:33N 26°50' W 014°46'1312.8
2016-Aug-07 19:33N 27°02' W 014°39'1312.5
2016-Aug-07 18:33N 27°13' W 014°32'1211.9
2016-Aug-07 17:33N 27°24' W 014°29'1212.2
2016-Aug-07 16:33N 27°36' W 014°26'1313.0
2016-Aug-07 15:33N 27°49' W 014°22'1212.5
2016-Aug-07 14:33N 27°60' W 014°16'1212.2
2016-Aug-07 13:33N 28°08' W 014°06'1212.1
2016-Aug-07 12:33N 28°13' W 013°54'1212.6
2016-Aug-07 11:33N 28°25' W 013°47'1412.5
2016-Aug-07 10:26N 28°38' W 013°44'1011.2
2016-Aug-07 09:33N 28°48' W 013°42'1211.3
2016-Aug-07 08:29N 28°54' W 013°30'1212.2
2016-Aug-07 07:28N 29°04' W 013°21'1111.7
2016-Aug-07 06:33N 29°10' W 013°11'2512.1
2016-Aug-07 04:28N 29°29' W 012°53'1112.0
2016-Aug-07 03:33N 29°38' W 012°45'1212.2
2016-Aug-07 02:33N 29°47' W 012°37'1312.5
2016-Aug-07 01:31N 29°57' W 012°27'1312.9
2016-Aug-07 00:30N 30°07' W 012°17'1812.9
2016-Aug-06 23:08N 30°20' W 012°04'813.4
2016-Aug-06 22:33N 30°26' W 011°58'7 5.9
2016-Aug-06 21:21N 30°32' W 011°52'2 2.8
2016-Aug-06 20:32N 30°34' W 011°51'3 2.7
2016-Aug-06 19:32N 30°36' W 011°50'7 2.1
2016-Aug-06 16:08N 30°43' W 011°46'1 1.8
2016-Aug-06 15:33N 30°44' W 011°45'1111.1
2016-Aug-06 14:33N 30°52' W 011°37'2311.6
2016-Aug-06 12:33N 31°11' W 011°21'1211.8
2016-Aug-06 11:33N 31°20' W 011°12'1211.7
2016-Aug-06 10:33N 31°29' W 011°03'1211.8
2016-Aug-06 09:30N 31°38' W 010°54'1111.9
2016-Aug-06 08:33N 31°47' W 010°46'1312.3
2016-Aug-06 07:31N 31°57' W 010°37'3911.8
2016-Aug-06 04:15N 32°28' W 010°08'1211.6
2016-Aug-06 03:15N 32°37' W 010°00'1111.8
2016-Aug-06 02:21N 32°45' W 009°52'1512.0
2016-Aug-06 01:08N 32°57' W 009°42'7212.3
2016-Aug-05 19:19N 33°50' W 008°44'12111.9
2016-Aug-05 09:11N 35°10' W 006°55'1211.8
2016-Aug-05 08:13N 35°19' W 006°45'811.7
2016-Aug-05 07:33N 35°24' W 006°38'3511.0
2016-Aug-05 04:19N 35°47' W 006°05'810.2
2016-Aug-05 03:32N 35°53' W 005°58'2110.8
2016-Aug-05 01:33N 35°58' W 005°33'9 9.3
2016-Aug-05 00:33N 36°04' W 005°24'2 1.6
2016-Aug-04 23:32N 36°05' W 005°25'0 0.1
2016-Aug-04 22:29N 36°05' W 005°25'0 0.1
2016-Aug-04 21:29N 36°05' W 005°25'0 0.0
2016-Aug-04 20:29N 36°05' W 005°25'0 0.2
2016-Aug-04 19:32N 36°05' W 005°25'8 6.7
2016-Aug-04 18:25N 36°03' W 005°16'30911.9
2016-Aug-03 16:24N 38°39' E 000°20'10 8.1
2016-Aug-03 15:09N 38°49' E 000°21'19 7.3
2016-Aug-03 12:33N 39°03' E 000°04'10 7.5
2016-Aug-03 11:12N 38°60' W 000°08'1 0.0
2016-Aug-02 17:27N 38°60' W 000°09'0 0.0
2016-Aug-02 15:09N 38°60' W 000°09'0 0.0
2016-Aug-02 14:33N 38°60' W 000°09'44 1.3
2016-Aug-01 03:33N 38°18' E 000°08'1313.3
2016-Aug-01 02:33N 38°07' W 000°02'1313.5
2016-Aug-01 01:33N 37°56' W 000°12'1313.3
2016-Aug-01 00:33N 37°45' W 000°21'1414.1
2016-Jul-31 23:33N 37°33' W 000°31'1414.3
2016-Jul-31 22:33N 37°24' W 000°45'1414.5
2016-Jul-31 21:33N 37°14' W 000°58'1414.3
2016-Jul-31 20:33N 37°04' W 001°12'18814.1
2016-Jul-31 07:10N 36°03' W 004°54'914.9
2016-Jul-31 06:33N 36°02' W 005°05'1616.7
2016-Jul-31 05:33N 35°58' W 005°25'1716.6
2016-Jul-31 04:32N 35°53' W 005°45'4113.6
2016-Jul-31 01:31N 35°29' W 006°26'4313.9
2016-Jul-30 22:26N 34°58' W 007°03'5313.5
2016-Jul-30 18:33N 34°21' W 007°47'4313.2
2016-Jul-30 15:18N 33°51' W 008°24'1213.4
2016-Jul-30 14:26N 33°42' W 008°34'  
Track history (hours):
 
Tides and Currents Weather Stations Pressure Air Temp Water Temp Dewpoint Dewpoint Depression Visibility Wind Speed Wind Dir Waves Ship Positions

Egmondgracht

Last reported at 2016-Aug-09 11:21 UTC. Time now 2016-Aug-25 16:45 UTC.
Position N 19°36' W 019°14'.
Warning: this ship's position is 16 days out of date.

Length 136 m; beam 19 m; draft 9 m.

Type: Cargo ship. MMSI: 245716000.

Date/timePositionNaut miles runAvg speedWind from/ knotsBaromVisibWave heightAir tempDewpointWater temp
2016-Aug-09 11:21N 19°36' W 019°14'48712.9
2016-Aug-07 21:33N 26°39' W 014°53'1312.8
2016-Aug-07 20:33N 26°50' W 014°46'1312.8
2016-Aug-07 19:33N 27°02' W 014°39'1312.5
2016-Aug-07 18:33N 27°13' W 014°32'1211.9
2016-Aug-07 17:33N 27°24' W 014°29'1212.2
2016-Aug-07 16:33N 27°36' W 014°26'1313.0
2016-Aug-07 15:33N 27°49' W 014°22'1212.5
2016-Aug-07 14:33N 27°60' W 014°16'1212.2
2016-Aug-07 13:33N 28°08' W 014°06'1212.1
2016-Aug-07 12:33N 28°13' W 013°54'1212.6
2016-Aug-07 11:33N 28°25' W 013°47'1412.5
2016-Aug-07 10:26N 28°38' W 013°44'1011.2
2016-Aug-07 09:33N 28°48' W 013°42'1211.3
2016-Aug-07 08:29N 28°54' W 013°30'1212.2
2016-Aug-07 07:28N 29°04' W 013°21'1111.7
2016-Aug-07 06:33N 29°10' W 013°11'2512.1
2016-Aug-07 04:28N 29°29' W 012°53'1112.0
2016-Aug-07 03:33N 29°38' W 012°45'1212.2
2016-Aug-07 02:33N 29°47' W 012°37'1312.5
2016-Aug-07 01:31N 29°57' W 012°27'1312.9
2016-Aug-07 00:30N 30°07' W 012°17'1812.9
2016-Aug-06 23:08N 30°20' W 012°04'813.4
2016-Aug-06 22:33N 30°26' W 011°58'7 5.9
2016-Aug-06 21:21N 30°32' W 011°52'2 2.8
2016-Aug-06 20:32N 30°34' W 011°51'3 2.7
2016-Aug-06 19:32N 30°36' W 011°50'7 2.1
2016-Aug-06 16:08N 30°43' W 011°46'1 1.8
2016-Aug-06 15:33N 30°44' W 011°45'1111.1
2016-Aug-06 14:33N 30°52' W 011°37'2311.6
2016-Aug-06 12:33N 31°11' W 011°21'1211.8
2016-Aug-06 11:33N 31°20' W 011°12'1211.7
2016-Aug-06 10:33N 31°29' W 011°03'1211.8
2016-Aug-06 09:30N 31°38' W 010°54'1111.9
2016-Aug-06 08:33N 31°47' W 010°46'1312.3
2016-Aug-06 07:31N 31°57' W 010°37'3911.8
2016-Aug-06 04:15N 32°28' W 010°08'1211.6
2016-Aug-06 03:15N 32°37' W 010°00'1111.8
2016-Aug-06 02:21N 32°45' W 009°52'1512.0
2016-Aug-06 01:08N 32°57' W 009°42'7212.3
2016-Aug-05 19:19N 33°50' W 008°44'12111.9
2016-Aug-05 09:11N 35°10' W 006°55'1211.8
2016-Aug-05 08:13N 35°19' W 006°45'811.7
2016-Aug-05 07:33N 35°24' W 006°38'3511.0
2016-Aug-05 04:19N 35°47' W 006°05'810.2
2016-Aug-05 03:32N 35°53' W 005°58'2110.8
2016-Aug-05 01:33N 35°58' W 005°33'9 9.3
2016-Aug-05 00:33N 36°04' W 005°24'2 1.6
2016-Aug-04 23:32N 36°05' W 005°25'0 0.1
2016-Aug-04 22:29N 36°05' W 005°25'0 0.1
2016-Aug-04 21:29N 36°05' W 005°25'0 0.0
2016-Aug-04 20:29N 36°05' W 005°25'0 0.2
2016-Aug-04 19:32N 36°05' W 005°25'8 6.7
2016-Aug-04 18:25N 36°03' W 005°16'30911.9
2016-Aug-03 16:24N 38°39' E 000°20'10 8.1
2016-Aug-03 15:09N 38°49' E 000°21'19 7.3
2016-Aug-03 12:33N 39°03' E 000°04'10 7.5
2016-Aug-03 11:12N 38°60' W 000°08'1 0.0
2016-Aug-02 17:27N 38°60' W 000°09'0 0.0
2016-Aug-02 15:09N 38°60' W 000°09'0 0.0
2016-Aug-02 14:33N 38°60' W 000°09'44 1.3
2016-Aug-01 03:33N 38°18' E 000°08'1313.3
2016-Aug-01 02:33N 38°07' W 000°02'1313.5
2016-Aug-01 01:33N 37°56' W 000°12'1313.3
2016-Aug-01 00:33N 37°45' W 000°21'1414.1
2016-Jul-31 23:33N 37°33' W 000°31'1414.3
2016-Jul-31 22:33N 37°24' W 000°45'1414.5
2016-Jul-31 21:33N 37°14' W 000°58'1414.3
2016-Jul-31 20:33N 37°04' W 001°12'18814.1
2016-Jul-31 07:10N 36°03' W 004°54'914.9
2016-Jul-31 06:33N 36°02' W 005°05'1616.7
2016-Jul-31 05:33N 35°58' W 005°25'1716.6
2016-Jul-31 04:32N 35°53' W 005°45'4113.6
2016-Jul-31 01:31N 35°29' W 006°26'4313.9
2016-Jul-30 22:26N 34°58' W 007°03'5313.5
2016-Jul-30 18:33N 34°21' W 007°47'4313.2
2016-Jul-30 15:18N 33°51' W 008°24'1213.4
2016-Jul-30 14:26N 33°42' W 008°34'  

Dump ship's entire track history